sensor_id;sensor_type;location;lat;lon;timestamp;pressure;altitude;pressure_sealevel;temperature;humidity
22241;BME280;11289;52.524;13.694;2023-12-20T00:01:37;100324.59;;;5.99;100.00
22241;BME280;11289;52.524;13.694;2023-12-20T00:04:03;100322.03;;;6.02;100.00
22241;BME280;11289;52.524;13.694;2023-12-20T00:06:30;100311.13;;;5.97;100.00
22241;BME280;11289;52.524;13.694;2023-12-20T00:08:56;100316.31;;;5.99;100.00
22241;BME280;11289;52.524;13.694;2023-12-20T00:11:23;100301.72;;;5.98;100.00
22241;BME280;11289;52.524;13.694;2023-12-20T00:13:49;100301.72;;;5.98;100.00
22241;BME280;11289;52.524;13.694;2023-12-20T00:16:15;100309.97;;;5.98;100.00
22241;BME280;11289;52.524;13.694;2023-12-20T00:18:41;100304.75;;;5.97;100.00
22241;BME280;11289;52.524;13.694;2023-12-20T00:21:07;100307.22;;;5.98;100.00
22241;BME280;11289;52.524;13.694;2023-12-20T00:23:33;100305.31;;;5.99;100.00
22241;BME280;11289;52.524;13.694;2023-12-20T00:25:59;100290.16;;;5.96;100.00
22241;BME280;11289;52.524;13.694;2023-12-20T00:28:25;100293.44;;;5.98;100.00
22241;BME280;11289;52.524;13.694;2023-12-20T00:30:51;100296.19;;;5.98;100.00
22241;BME280;11289;52.524;13.694;2023-12-20T00:33:17;100291.22;;;6.00;100.00
22241;BME280;11289;52.524;13.694;2023-12-20T00:35:43;100293.97;;;6.00;100.00
22241;BME280;11289;52.524;13.694;2023-12-20T00:38:09;100289.25;;;6.01;100.00
22241;BME280;11289;52.524;13.694;2023-12-20T00:40:35;100285.69;;;6.00;100.00
22241;BME280;11289;52.524;13.694;2023-12-20T00:43:01;100285.38;;;6.02;100.00
22241;BME280;11289;52.524;13.694;2023-12-20T00:45:27;100295.59;;;6.01;100.00
22241;BME280;11289;52.524;13.694;2023-12-20T00:47:53;100284.38;;;5.98;100.00
22241;BME280;11289;52.524;13.694;2023-12-20T00:50:19;100281.31;;;5.99;100.00
22241;BME280;11289;52.524;13.694;2023-12-20T00:52:47;100290.09;;;6.01;100.00
22241;BME280;11289;52.524;13.694;2023-12-20T00:55:13;100288.47;;;6.00;100.00
22241;BME280;11289;52.524;13.694;2023-12-20T00:57:39;100280.50;;;5.99;100.00
22241;BME280;11289;52.524;13.694;2023-12-20T01:00:06;100277.44;;;6.00;100.00
22241;BME280;11289;52.524;13.694;2023-12-20T01:02:32;100275.03;;;5.93;100.00
22241;BME280;11289;52.524;13.694;2023-12-20T01:04:58;100286.00;;;5.99;100.00
22241;BME280;11289;52.524;13.694;2023-12-20T01:07:24;100278.84;;;5.98;100.00
22241;BME280;11289;52.524;13.694;2023-12-20T01:09:50;100284.38;;;5.98;100.00
22241;BME280;11289;52.524;13.694;2023-12-20T01:12:16;100280.25;;;5.95;100.00
22241;BME280;11289;52.524;13.694;2023-12-20T01:14:41;100291.53;;;5.99;100.00
22241;BME280;11289;52.524;13.694;2023-12-20T01:17:08;100283.00;;;5.95;100.00
22241;BME280;11289;52.524;13.694;2023-12-20T01:19:34;100289.88;;;5.98;100.00
22241;BME280;11289;52.524;13.694;2023-12-20T01:21:59;100290.38;;;6.00;100.00
22241;BME280;11289;52.524;13.694;2023-12-20T01:24:25;100287.41;;;5.96;100.00
22241;BME280;11289;52.524;13.694;2023-12-20T01:26:51;100280.25;;;5.95;100.00
22241;BME280;11289;52.524;13.694;2023-12-20T01:29:17;100284.38;;;5.98;100.00
22241;BME280;11289;52.524;13.694;2023-12-20T01:31:43;100279.66;;;5.98;100.00
22241;BME280;11289;52.524;13.694;2023-12-20T01:34:09;100289.25;;;6.01;100.00
22241;BME280;11289;52.524;13.694;2023-12-20T01:36:35;100280.50;;;5.99;100.00
22241;BME280;11289;52.524;13.694;2023-12-20T01:39:01;100270.06;;;5.96;100.00
22241;BME280;11289;52.524;13.694;2023-12-20T01:41:27;100272.72;;;6.01;100.00
22241;BME280;11289;52.524;13.694;2023-12-20T01:43:53;100263.13;;;5.98;100.00
22241;BME280;11289;52.524;13.694;2023-12-20T01:46:20;100267.22;;;6.01;100.00
22241;BME280;11289;52.524;13.694;2023-12-20T01:48:47;100265.88;;;5.98;100.00
22241;BME280;11289;52.524;13.694;2023-12-20T01:51:13;100259.25;;;5.99;100.00
22241;BME280;11289;52.524;13.694;2023-12-20T01:53:40;100262.81;;;6.00;100.00
22241;BME280;11289;52.524;13.694;2023-12-20T01:56:07;100262.53;;;6.01;100.00
22241;BME280;11289;52.524;13.694;2023-12-20T01:58:33;100251.00;;;5.99;100.00
22241;BME280;11289;52.524;13.694;2023-12-20T02:00:59;100259.16;;;6.04;100.00
22241;BME280;11289;52.524;13.694;2023-12-20T02:03:25;100266.59;;;6.04;100.00
22241;BME280;11289;52.524;13.694;2023-12-20T02:05:52;100261.91;;;6.04;100.00
22241;BME280;11289;52.524;13.694;2023-12-20T02:08:18;100264.16;;;6.02;100.00
22241;BME280;11289;52.524;13.694;2023-12-20T02:10:44;100262.53;;;6.01;100.00
22241;BME280;11289;52.524;13.694;2023-12-20T02:13:10;100262.72;;;6.05;100.00
22241;BME280;11289;52.524;13.694;2023-12-20T02:15:36;100259.16;;;6.04;100.00
22241;BME280;11289;52.524;13.694;2023-12-20T02:18:03;100239.34;;;6.02;100.00
22241;BME280;11289;52.524;13.694;2023-12-20T02:20:30;100234.66;;;6.03;100.00
22241;BME280;11289;52.524;13.694;2023-12-20T02:22:56;100245.38;;;6.04;100.00
22241;BME280;11289;52.524;13.694;2023-12-20T02:25:22;100253.66;;;6.04;100.00
22241;BME280;11289;52.524;13.694;2023-12-20T02:27:48;100245.38;;;6.04;100.00
22241;BME280;11289;52.524;13.694;2023-12-20T02:30:15;100247.81;;;6.06;100.00
22241;BME280;11289;52.524;13.694;2023-12-20T02:32:41;100243.75;;;6.03;100.00
22241;BME280;11289;52.524;13.694;2023-12-20T02:35:07;100245.38;;;6.04;100.00
22241;BME280;11289;52.524;13.694;2023-12-20T02:37:33;100244.75;;;6.07;100.00
22241;BME280;11289;52.524;13.694;2023-12-20T02:39:59;100244.44;;;6.09;100.00
22241;BME280;11289;52.524;13.694;2023-12-20T02:42:25;100244.75;;;6.07;100.00
22241;BME280;11289;52.524;13.694;2023-12-20T02:44:51;100247.19;;;6.09;100.00
22241;BME280;11289;52.524;13.694;2023-12-20T02:47:17;100241.69;;;6.09;100.00
22241;BME280;11289;52.524;13.694;2023-12-20T02:49:43;100247.19;;;6.09;100.00
22241;BME280;11289;52.524;13.694;2023-12-20T02:52:09;100241.47;;;6.05;100.00
22241;BME280;11289;52.524;13.694;2023-12-20T02:54:35;100246.81;;;6.02;100.00
22241;BME280;11289;52.524;13.694;2023-12-20T02:57:01;100247.28;;;6.04;100.00
22241;BME280;11289;52.524;13.694;2023-12-20T02:59:27;100252.94;;;5.99;100.00
22241;BME280;11289;52.524;13.694;2023-12-20T03:01:53;100254.53;;;6.00;100.00
22241;BME280;11289;52.524;13.694;2023-12-20T03:04:19;100259.25;;;5.99;100.00
22241;BME280;11289;52.524;13.694;2023-12-20T03:06:45;100254.53;;;6.00;100.00
22241;BME280;11289;52.524;13.694;2023-12-20T03:09:11;100239.22;;;5.93;100.00
22241;BME280;11289;52.524;13.694;2023-12-20T03:11:37;100245.78;;;5.98;100.00
22241;BME280;11289;52.524;13.694;2023-12-20T03:14:03;100241.19;;;5.93;100.00
22241;BME280;11289;52.524;13.694;2023-12-20T03:16:29;100252.38;;;5.97;100.00
22241;BME280;11289;52.524;13.694;2023-12-20T03:18:55;100260.47;;;5.93;100.00
22241;BME280;11289;52.524;13.694;2023-12-20T03:21:20;100262.69;;;5.91;100.00
22241;BME280;11289;52.524;13.694;2023-12-20T03:23:46;100260.97;;;5.95;100.00
22241;BME280;11289;52.524;13.694;2023-12-20T03:26:12;100263.22;;;5.93;100.00
22241;BME280;11289;52.524;13.694;2023-12-20T03:28:39;100254.94;;;5.93;100.00
22241;BME280;11289;52.524;13.694;2023-12-20T03:31:04;100270.28;;;5.99;100.00
22241;BME280;11289;52.524;13.694;2023-12-20T03:33:30;100262.31;;;5.98;100.00
22241;BME280;11289;52.524;13.694;2023-12-20T03:35:56;100258.19;;;5.95;100.00
22241;BME280;11289;52.524;13.694;2023-12-20T03:38:22;100259.84;;;5.96;100.00
22241;BME280;11289;52.524;13.694;2023-12-20T03:40:51;100261.28;;;5.93;100.00
22241;BME280;11289;52.524;13.694;2023-12-20T03:43:17;100268.41;;;5.95;100.00
22241;BME280;11289;52.524;13.694;2023-12-20T03:45:43;100272.09;;;5.90;100.00
22241;BME280;11289;52.524;13.694;2023-12-20T03:48:09;100270.97;;;5.91;100.00
22241;BME280;11289;52.524;13.694;2023-12-20T03:50:35;100266.59;;;5.90;100.00
22241;BME280;11289;52.524;13.694;2023-12-20T03:53:01;100263.22;;;5.93;100.00
22241;BME280;11289;52.524;13.694;2023-12-20T03:55:27;100258.63;;;5.88;100.00
22241;BME280;11289;52.524;13.694;2023-12-20T03:57:53;100269.97;;;5.87;100.00
22241;BME280;11289;52.524;13.694;2023-12-20T04:00:19;100263.22;;;5.79;100.00
22241;BME280;11289;52.524;13.694;2023-12-20T04:02:45;100248.22;;;5.71;100.00
22241;BME280;11289;52.524;13.694;2023-12-20T04:05:11;100239.47;;;5.69;100.00
22241;BME280;11289;52.524;13.694;2023-12-20T04:07:38;100257.22;;;5.77;100.00
22241;BME280;11289;52.524;13.694;2023-12-20T04:10:04;100245.97;;;5.73;100.00
22241;BME280;11289;52.524;13.694;2023-12-20T04:12:31;100246.59;;;5.70;100.00
22241;BME280;11289;52.524;13.694;2023-12-20T04:14:57;100254.84;;;5.70;100.00
22241;BME280;11289;52.524;13.694;2023-12-20T04:17:23;100248.94;;;5.63;100.00
22241;BME280;11289;52.524;13.694;2023-12-20T04:19:50;100244.75;;;5.66;100.00
22241;BME280;11289;52.524;13.694;2023-12-20T04:22:17;100246.19;;;5.63;100.00
22241;BME280;11289;52.524;13.694;2023-12-20T04:24:43;100237.72;;;5.60;100.00
22241;BME280;11289;52.524;13.694;2023-12-20T04:27:09;100239.88;;;5.63;100.00
22241;BME280;11289;52.524;13.694;2023-12-20T04:29:35;100239.88;;;5.63;100.00
22241;BME280;11289;52.524;13.694;2023-12-20T04:32:01;100235.69;;;5.65;100.00
22241;BME280;11289;52.524;13.694;2023-12-20T04:34:27;100220.38;;;5.59;100.00
22241;BME280;11289;52.524;13.694;2023-12-20T04:36:53;100239.06;;;5.62;100.00
22241;BME280;11289;52.524;13.694;2023-12-20T04:39:19;100239.66;;;5.59;100.00
22241;BME280;11289;52.524;13.694;2023-12-20T04:41:45;100242.72;;;5.57;100.00
22241;BME280;11289;52.524;13.694;2023-12-20T04:44:13;100252.75;;;5.53;100.00
22241;BME280;11289;52.524;13.694;2023-12-20T04:46:39;100237.63;;;5.51;100.00
22241;BME280;11289;52.524;13.694;2023-12-20T04:49:05;100222.44;;;5.39;100.00
22241;BME280;11289;52.524;13.694;2023-12-20T04:51:34;100229.16;;;5.47;100.00
22241;BME280;11289;52.524;13.694;2023-12-20T04:54:01;100231.19;;;5.41;100.00
22241;BME280;11289;52.524;13.694;2023-12-20T04:56:27;100232.94;;;5.37;100.00
22241;BME280;11289;52.524;13.694;2023-12-20T04:58:53;100231.63;;;5.35;100.00
22241;BME280;11289;52.524;13.694;2023-12-20T05:01:19;100228.94;;;5.30;100.00
22241;BME280;11289;52.524;13.694;2023-12-20T05:03:46;100229.78;;;5.30;100.00
22241;BME280;11289;52.524;13.694;2023-12-20T05:06:12;100238.03;;;5.30;100.00
22241;BME280;11289;52.524;13.694;2023-12-20T05:08:38;100233.22;;;5.22;100.00
22241;BME280;11289;52.524;13.694;2023-12-20T05:11:04;100229.66;;;5.21;100.00
22241;BME280;11289;52.524;13.694;2023-12-20T05:13:30;100228.09;;;5.15;100.00
22241;BME280;11289;52.524;13.694;2023-12-20T05:15:56;100240.56;;;5.13;100.00
22241;BME280;11289;52.524;13.694;2023-12-20T05:18:22;100241.38;;;5.13;100.00
22241;BME280;11289;52.524;13.694;2023-12-20T05:20:50;100235.38;;;5.11;100.00
22241;BME280;11289;52.524;13.694;2023-12-20T05:23:17;100238.41;;;5.10;100.00
22241;BME280;11289;52.524;13.694;2023-12-20T05:25:43;100231.78;;;5.11;100.00
22241;BME280;11289;52.524;13.694;2023-12-20T05:28:09;100236.78;;;5.09;100.00
22241;BME280;11289;52.524;13.694;2023-12-20T05:30:35;100235.88;;;5.13;100.00
22241;BME280;11289;52.524;13.694;2023-12-20T05:33:01;100236.66;;;5.14;100.00
22241;BME280;11289;52.524;13.694;2023-12-20T05:35:26;100238.63;;;5.13;100.00
22241;BME280;11289;52.524;13.694;2023-12-20T05:37:53;100240.56;;;5.13;100.00
22241;BME280;11289;52.524;13.694;2023-12-20T05:40:18;100238.31;;;5.15;100.00
22241;BME280;11289;52.524;13.694;2023-12-20T05:42:44;100231.47;;;5.12;100.00
22241;BME280;11289;52.524;13.694;2023-12-20T05:45:10;100235.38;;;5.11;100.00
22241;BME280;11289;52.524;13.694;2023-12-20T05:47:37;100231.28;;;5.09;100.00
22241;BME280;11289;52.524;13.694;2023-12-20T05:50:03;100227.19;;;5.06;100.00
22241;BME280;11289;52.524;13.694;2023-12-20T05:52:29;100232.19;;;5.04;100.00
22241;BME280;11289;52.524;13.694;2023-12-20T05:54:55;100221.25;;;4.99;100.00
22241;BME280;11289;52.524;13.694;2023-12-20T05:57:23;100219.72;;;4.93;100.00
22241;BME280;11289;52.524;13.694;2023-12-20T05:59:49;100215.13;;;4.88;99.82
22241;BME280;11289;52.524;13.694;2023-12-20T06:02:15;100211.84;;;4.86;99.79
22241;BME280;11289;52.524;13.694;2023-12-20T06:04:45;100205.84;;;4.84;100.00
22241;BME280;11289;52.524;13.694;2023-12-20T06:07:12;100217.97;;;4.83;99.39
22241;BME280;11289;52.524;13.694;2023-12-20T06:09:38;100211.84;;;4.72;99.47
22241;BME280;11289;52.524;13.694;2023-12-20T06:12:04;100219.25;;;4.71;99.41
22241;BME280;11289;52.524;13.694;2023-12-20T06:14:30;100203.66;;;4.67;99.92
22241;BME280;11289;52.524;13.694;2023-12-20T06:16:57;100203.16;;;4.65;99.20
22241;BME280;11289;52.524;13.694;2023-12-20T06:19:23;100194.97;;;4.60;99.62
22241;BME280;11289;52.524;13.694;2023-12-20T06:21:49;100198.53;;;4.60;99.60
22241;BME280;11289;52.524;13.694;2023-12-20T06:24:15;100192.09;;;4.51;99.68
22241;BME280;11289;52.524;13.694;2023-12-20T06:26:41;100208.84;;;4.55;99.90
22241;BME280;11289;52.524;13.694;2023-12-20T06:29:07;100202.81;;;4.52;100.00
22241;BME280;11289;52.524;13.694;2023-12-20T06:31:33;100198.94;;;4.53;100.00
22241;BME280;11289;52.524;13.694;2023-12-20T06:33:59;100195.97;;;4.50;100.00
22241;BME280;11289;52.524;13.694;2023-12-20T06:36:28;100206.44;;;4.48;100.00
22241;BME280;11289;52.524;13.694;2023-12-20T06:38:54;100206.66;;;4.51;100.00
22241;BME280;11289;52.524;13.694;2023-12-20T06:41:20;100219.09;;;4.49;100.00
22241;BME280;11289;52.524;13.694;2023-12-20T06:43:46;100220.50;;;4.46;100.00
22241;BME280;11289;52.524;13.694;2023-12-20T06:46:12;100216.41;;;4.44;100.00
22241;BME280;11289;52.524;13.694;2023-12-20T06:48:39;100220.28;;;4.43;100.00
22241;BME280;11289;52.524;13.694;2023-12-20T06:51:06;100220.28;;;4.43;100.00
22241;BME280;11289;52.524;13.694;2023-12-20T06:53:32;100207.22;;;4.34;100.00
22241;BME280;11289;52.524;13.694;2023-12-20T06:55:58;100209.88;;;4.40;100.00
22241;BME280;11289;52.524;13.694;2023-12-20T06:58:24;100201.41;;;4.36;100.00
22241;BME280;11289;52.524;13.694;2023-12-20T07:00:50;100203.34;;;4.35;100.00
22241;BME280;11289;52.524;13.694;2023-12-20T07:03:17;100206.63;;;4.38;100.00
22241;BME280;11289;52.524;13.694;2023-12-20T07:05:44;100210.72;;;4.40;100.00
22241;BME280;11289;52.524;13.694;2023-12-20T07:08:10;100204.97;;;4.36;100.00
22241;BME280;11289;52.524;13.694;2023-12-20T07:10:36;100208.03;;;4.35;100.00
22241;BME280;11289;52.524;13.694;2023-12-20T07:13:02;100198.44;;;4.32;100.00
22241;BME280;11289;52.524;13.694;2023-12-20T07:15:28;100210.47;;;4.36;100.00
22241;BME280;11289;52.524;13.694;2023-12-20T07:17:55;100201.13;;;4.38;100.00
22241;BME280;11289;52.524;13.694;2023-12-20T07:20:21;100197.84;;;4.35;100.00
22241;BME280;11289;52.524;13.694;2023-12-20T07:22:47;100200.81;;;4.39;100.00
22241;BME280;11289;52.524;13.694;2023-12-20T07:25:13;100202.16;;;4.42;100.00
22241;BME280;11289;52.524;13.694;2023-12-20T07:27:39;100205.50;;;4.39;100.00
22241;BME280;11289;52.524;13.694;2023-12-20T07:30:05;100208.97;;;4.44;100.00
22241;BME280;11289;52.524;13.694;2023-12-20T07:32:31;100207.34;;;4.43;100.00
22241;BME280;11289;52.524;13.694;2023-12-20T07:34:57;100207.66;;;4.42;100.00
22241;BME280;11289;52.524;13.694;2023-12-20T07:37:23;100210.09;;;4.43;100.00
22241;BME280;11289;52.524;13.694;2023-12-20T07:39:49;100204.06;;;4.41;100.00
22241;BME280;11289;52.524;13.694;2023-12-20T07:42:15;100204.31;;;4.45;100.00
22241;BME280;11289;52.524;13.694;2023-12-20T07:44:41;100200.41;;;4.46;100.00
22241;BME280;11289;52.524;13.694;2023-12-20T07:47:07;100196.88;;;4.45;100.00
22241;BME280;11289;52.524;13.694;2023-12-20T07:49:33;100205.66;;;4.47;100.00
22241;BME280;11289;52.524;13.694;2023-12-20T07:51:59;100186.09;;;4.49;100.00
22241;BME280;11289;52.524;13.694;2023-12-20T07:54:25;100192.72;;;4.48;100.00
22241;BME280;11289;52.524;13.694;2023-12-20T07:56:51;100180.38;;;4.45;100.00
22241;BME280;11289;52.524;13.694;2023-12-20T07:59:17;100194.91;;;4.46;100.00
22241;BME280;11289;52.524;13.694;2023-12-20T08:01:43;100191.00;;;4.52;100.00
22241;BME280;11289;52.524;13.694;2023-12-20T08:04:09;100194.84;;;4.51;100.00
22241;BME280;11289;52.524;13.694;2023-12-20T08:06:35;100198.09;;;4.53;100.00
22241;BME280;11289;52.524;13.694;2023-12-20T08:09:01;100199.75;;;4.54;100.00
22241;BME280;11289;52.524;13.694;2023-12-20T08:11:28;100193.13;;;4.55;100.00
22241;BME280;11289;52.524;13.694;2023-12-20T08:13:54;100200.28;;;4.56;100.00
22241;BME280;11289;52.524;13.694;2023-12-20T08:16:20;100187.94;;;4.53;100.00
22241;BME280;11289;52.524;13.694;2023-12-20T08:18:47;100195.59;;;4.57;100.00
22241;BME280;11289;52.524;13.694;2023-12-20T08:21:13;100191.72;;;4.58;100.00
22241;BME280;11289;52.524;13.694;2023-12-20T08:23:39;100193.03;;;4.60;100.00
22241;BME280;11289;52.524;13.694;2023-12-20T08:26:06;100190.91;;;4.57;99.79
22241;BME280;11289;52.524;13.694;2023-12-20T08:28:32;100195.28;;;4.58;99.14
22241;BME280;11289;52.524;13.694;2023-12-20T08:30:58;100188.06;;;4.62;99.34
22241;BME280;11289;52.524;13.694;2023-12-20T08:33:24;100193.88;;;4.61;99.64
22241;BME280;11289;52.524;13.694;2023-12-20T08:35:50;100191.63;;;4.63;99.67
22241;BME280;11289;52.524;13.694;2023-12-20T08:38:16;100192.47;;;4.63;99.96
22241;BME280;11289;52.524;13.694;2023-12-20T08:40:44;100188.56;;;4.64;99.04
22241;BME280;11289;52.524;13.694;2023-12-20T08:43:10;100197.34;;;4.66;99.02
22241;BME280;11289;52.524;13.694;2023-12-20T08:45:36;100191.63;;;4.63;99.20
22241;BME280;11289;52.524;13.694;2023-12-20T08:48:02;100191.84;;;4.66;99.16
22241;BME280;11289;52.524;13.694;2023-12-20T08:50:29;100179.72;;;4.67;99.10
22241;BME280;11289;52.524;13.694;2023-12-20T08:52:55;100183.50;;;4.71;98.97
22241;BME280;11289;52.524;13.694;2023-12-20T08:55:21;100190.94;;;4.71;99.53
22241;BME280;11289;52.524;13.694;2023-12-20T08:57:46;100186.78;;;4.74;99.57
22241;BME280;11289;52.524;13.694;2023-12-20T09:00:13;100175.19;;;4.77;98.96
22241;BME280;11289;52.524;13.694;2023-12-20T09:02:39;100170.91;;;4.84;99.30
22241;BME280;11289;52.524;13.694;2023-12-20T09:05:05;100179.88;;;4.90;99.31
22241;BME280;11289;52.524;13.694;2023-12-20T09:07:31;100176.94;;;5.00;98.94
22241;BME280;11289;52.524;13.694;2023-12-20T09:09:58;100176.94;;;5.00;98.46
22241;BME280;11289;52.524;13.694;2023-12-20T09:12:24;100182.34;;;5.05;98.48
22241;BME280;11289;52.524;13.694;2023-12-20T09:14:51;100166.44;;;5.02;97.65
22241;BME280;11289;52.524;13.694;2023-12-20T09:17:18;100187.13;;;5.14;98.48
22241;BME280;11289;52.524;13.694;2023-12-20T09:19:44;100180.72;;;5.18;98.01
22241;BME280;11289;52.524;13.694;2023-12-20T09:22:11;100177.56;;;5.25;97.90
22241;BME280;11289;52.524;13.694;2023-12-20T09:24:37;100179.19;;;5.40;98.11
22241;BME280;11289;52.524;13.694;2023-12-20T09:27:05;100180.13;;;5.49;96.96
22241;BME280;11289;52.524;13.694;2023-12-20T09:29:31;100162.19;;;5.52;95.93
22241;BME280;11289;52.524;13.694;2023-12-20T09:31:57;100135.84;;;5.46;95.64
22241;BME280;11289;52.524;13.694;2023-12-20T09:34:24;100158.09;;;5.49;95.06
22241;BME280;11289;52.524;13.694;2023-12-20T09:36:51;100154.81;;;5.47;94.23
22241;BME280;11289;52.524;13.694;2023-12-20T09:39:18;100150.75;;;5.45;94.53
22241;BME280;11289;52.524;13.694;2023-12-20T09:41:46;100147.47;;;5.43;93.85
22241;BME280;11289;52.524;13.694;2023-12-20T09:44:16;100139.03;;;5.39;93.96
22241;BME280;11289;52.524;13.694;2023-12-20T09:46:44;100140.75;;;5.35;93.85
22241;BME280;11289;52.524;13.694;2023-12-20T09:49:12;100150.94;;;5.34;94.01
22241;BME280;11289;52.524;13.694;2023-12-20T09:51:39;100152.41;;;5.32;94.17
22241;BME280;11289;52.524;13.694;2023-12-20T09:54:06;100146.19;;;5.26;94.26
22241;BME280;11289;52.524;13.694;2023-12-20T09:56:32;100146.66;;;5.28;94.77
22241;BME280;11289;52.524;13.694;2023-12-20T09:58:59;100142.09;;;5.23;95.16
22241;BME280;11289;52.524;13.694;2023-12-20T10:01:25;100150.03;;;5.25;95.33
22241;BME280;11289;52.524;13.694;2023-12-20T10:03:54;100145.66;;;5.24;95.72
22241;BME280;11289;52.524;13.694;2023-12-20T10:06:21;100135.47;;;5.25;96.04
22241;BME280;11289;52.524;13.694;2023-12-20T10:08:47;100133.84;;;5.23;95.99
22241;BME280;11289;52.524;13.694;2023-12-20T10:11:13;100118.75;;;5.21;95.79
22241;BME280;11289;52.524;13.694;2023-12-20T10:13:41;100119.06;;;5.33;98.61
22241;BME280;11289;52.524;13.694;2023-12-20T10:16:07;100110.03;;;5.41;95.55
22241;BME280;11289;52.524;13.694;2023-12-20T10:18:33;100107.09;;;5.38;94.67
22241;BME280;11289;52.524;13.694;2023-12-20T10:21:00;100102.41;;;5.38;95.25
22241;BME280;11289;52.524;13.694;2023-12-20T10:23:26;100091.84;;;5.32;94.52
22241;BME280;11289;52.524;13.694;2023-12-20T10:26:01;100086.00;;;5.33;95.05
22241;BME280;11289;52.524;13.694;2023-12-20T10:28:33;100093.13;;;5.34;95.22
22241;BME280;11289;52.524;13.694;2023-12-20T10:31:00;100086.94;;;5.29;94.31
22241;BME280;11289;52.524;13.694;2023-12-20T10:33:27;100083.34;;;5.28;94.68
22241;BME280;11289;52.524;13.694;2023-12-20T10:35:55;100090.81;;;5.28;94.71
22241;BME280;11289;52.524;13.694;2023-12-20T10:38:21;100071.22;;;5.29;94.66
22241;BME280;11289;52.524;13.694;2023-12-20T10:40:48;100076.53;;;5.26;94.51
22241;BME280;11289;52.524;13.694;2023-12-20T10:43:15;100073.50;;;5.27;94.89
22241;BME280;11289;52.524;13.694;2023-12-20T10:45:42;100069.41;;;5.25;93.91
22241;BME280;11289;52.524;13.694;2023-12-20T10:48:10;100068.47;;;5.29;94.71
22241;BME280;11289;52.524;13.694;2023-12-20T10:50:38;100074.00;;;5.29;94.14
22241;BME280;11289;52.524;13.694;2023-12-20T10:53:07;100059.91;;;5.31;93.46
22241;BME280;11289;52.524;13.694;2023-12-20T10:55:33;100049.91;;;5.35;94.04
22241;BME280;11289;52.524;13.694;2023-12-20T10:58:09;100034.72;;;5.37;94.71
22241;BME280;11289;52.524;13.694;2023-12-20T11:00:39;100039.31;;;5.42;94.32
22241;BME280;11289;52.524;13.694;2023-12-20T11:03:08;100031.84;;;5.43;94.09
22241;BME280;11289;52.524;13.694;2023-12-20T11:06:03;100027.97;;;5.44;93.17
22241;BME280;11289;52.524;13.694;2023-12-20T11:08:43;100027.97;;;5.44;92.48
22241;BME280;11289;52.524;13.694;2023-12-20T11:14:03;100034.19;;;5.49;92.48
22241;BME280;11289;52.524;13.694;2023-12-20T11:16:31;100026.22;;;5.48;92.20
22241;BME280;11289;52.524;13.694;2023-12-20T11:18:58;100023.28;;;5.44;91.28
22241;BME280;11289;52.524;13.694;2023-12-20T11:21:30;100009.72;;;5.48;91.93
22241;BME280;11289;52.524;13.694;2023-12-20T11:23:56;100002.56;;;5.47;91.63
22241;BME280;11289;52.524;13.694;2023-12-20T11:26:28;100001.94;;;5.50;91.40
22241;BME280;11289;52.524;13.694;2023-12-20T11:29:33;100006.97;;;5.48;91.00
22241;BME280;11289;52.524;13.694;2023-12-20T11:32:01;99993.69;;;5.50;91.57
22241;BME280;11289;52.524;13.694;2023-12-20T11:34:29;99982.34;;;5.51;91.38
22241;BME280;11289;52.524;13.694;2023-12-20T11:36:58;99983.78;;;5.49;91.19
22241;BME280;11289;52.524;13.694;2023-12-20T11:39:26;99975.66;;;5.44;91.35
22241;BME280;11289;52.524;13.694;2023-12-20T11:41:54;99968.84;;;5.41;91.67
22241;BME280;11289;52.524;13.694;2023-12-20T11:44:22;99951.06;;;5.47;92.06
22241;BME280;11289;52.524;13.694;2023-12-20T11:46:48;99953.94;;;5.42;92.63
22241;BME280;11289;52.524;13.694;2023-12-20T11:49:14;99955.28;;;5.45;92.50
22241;BME280;11289;52.524;13.694;2023-12-20T11:51:43;99944.53;;;5.43;93.65
22241;BME280;11289;52.524;13.694;2023-12-20T11:54:09;99937.44;;;5.42;93.17
22241;BME280;11289;52.524;13.694;2023-12-20T11:56:36;99931.41;;;5.40;93.01
22241;BME280;11289;52.524;13.694;2023-12-20T11:59:03;99911.44;;;5.34;93.19
22241;BME280;11289;52.524;13.694;2023-12-20T12:01:29;99924.94;;;5.36;93.19
22241;BME280;11289;52.524;13.694;2023-12-20T12:04:04;99941.44;;;5.36;93.56
22241;BME280;11289;52.524;13.694;2023-12-20T12:06:30;99918.09;;;5.33;93.58
22241;BME280;11289;52.524;13.694;2023-12-20T12:08:56;99914.03;;;5.31;93.95
22241;BME280;11289;52.524;13.694;2023-12-20T12:11:23;99911.75;;;5.33;93.34
22241;BME280;11289;52.524;13.694;2023-12-20T12:13:49;99906.56;;;5.31;93.69
22241;BME280;11289;52.524;13.694;2023-12-20T12:16:19;99899.31;;;5.35;94.07
22241;BME280;11289;52.524;13.694;2023-12-20T12:18:45;99885.75;;;5.39;94.08
22241;BME280;11289;52.524;13.694;2023-12-20T12:21:19;99878.66;;;5.47;94.51
22241;BME280;11289;52.524;13.694;2023-12-20T12:23:46;99870.72;;;5.45;94.51
22241;BME280;11289;52.524;13.694;2023-12-20T12:26:12;99872.03;;;5.48;93.87
22241;BME280;11289;52.524;13.694;2023-12-20T12:28:41;99864.28;;;5.50;93.79
22241;BME280;11289;52.524;13.694;2023-12-20T12:31:08;99859.41;;;5.47;93.55
22241;BME280;11289;52.524;13.694;2023-12-20T12:33:38;99849.03;;;5.44;93.01
22241;BME280;11289;52.524;13.694;2023-12-20T12:36:04;99840.94;;;5.47;93.10
22241;BME280;11289;52.524;13.694;2023-12-20T12:38:32;99832.97;;;5.46;93.36
22241;BME280;11289;52.524;13.694;2023-12-20T12:40:59;99831.88;;;5.47;93.48
22241;BME280;11289;52.524;13.694;2023-12-20T12:43:26;99840.13;;;5.47;92.71
22241;BME280;11289;52.524;13.694;2023-12-20T12:45:52;99827.13;;;5.38;92.77